Time;durP1;ratioP1;P1;durP2;ratioP2;P2;SDS_P1;SDS_P2;PMS_P1;PMS_P2;Temp;Humidity;BMP_temperature;BMP_pressure;BME280_temperature;BME280_humidity;BME280_pressure;Samples;Min_cycle;Max_cycle;Signal;HPM_P1;HPM_P2
2023/09/12 00:01:10;;;;;;;67.10;45.63;;;19.20;99.90;;;;;;5037254;28;20045;-66
2023/09/12 00:03:35;;;;;;;64.35;46.42;;;19.20;99.90;;;;;;5055523;28;20043;-67
2023/09/12 00:06:03;;;;;;;69.88;47.15;;;19.20;99.90;;;;;;5057549;28;20041;-66
2023/09/12 00:08:29;;;;;;;73.43;48.17;;;19.20;99.90;;;;;;5062333;28;20402;-66
2023/09/12 00:11:11;;;;;;;68.07;47.65;;;19.20;99.90;;;;;;5055714;28;20037;-66
2023/09/12 00:13:41;;;;;;;85.25;52.25;;;19.20;99.90;;;;;;5060691;28;20037;-66
2023/09/12 00:16:10;;;;;;;60.78;45.15;;;19.20;99.90;;;;;;5057967;28;20068;-66
2023/09/12 00:18:37;;;;;;;61.53;44.00;;;19.20;99.90;;;;;;5053828;28;20412;-67
2023/09/12 00:21:02;;;;;;;56.63;44.72;;;19.20;99.90;;;;;;5058851;28;20263;-66
2023/09/12 00:23:28;;;;;;;60.85;44.08;;;19.30;99.90;;;;;;5063230;28;20049;-67
2023/09/12 00:25:54;;;;;;;67.57;45.30;;;19.30;99.90;;;;;;5063099;28;20382;-66
2023/09/12 00:28:20;;;;;;;82.28;49.95;;;19.30;99.90;;;;;;5056385;28;20037;-67
2023/09/12 00:30:46;;;;;;;79.50;50.05;;;19.20;99.90;;;;;;5061004;28;20059;-66
2023/09/12 00:33:12;;;;;;;62.58;45.55;;;19.20;99.90;;;;;;5062286;28;20052;-66
2023/09/12 00:35:38;;;;;;;73.88;47.67;;;19.20;99.90;;;;;;5064768;28;20183;-66
2023/09/12 00:38:04;;;;;;;79.10;48.42;;;19.20;99.90;;;;;;5052846;28;20029;-67
2023/09/12 00:40:30;;;;;;;71.13;46.00;;;19.20;99.90;;;;;;5059440;28;20028;-66
2023/09/12 00:42:55;;;;;;;69.05;46.65;;;19.20;99.90;;;;;;5059352;28;20480;-67
2023/09/12 00:45:21;;;;;;;65.53;45.20;;;19.20;99.90;;;;;;5053727;28;20056;-66
2023/09/12 00:47:49;;;;;;;82.35;48.33;;;19.20;99.90;;;;;;5057141;28;20390;-67
2023/09/12 00:50:16;;;;;;;71.97;46.60;;;19.20;99.90;;;;;;5044949;28;20032;-67
2023/09/12 00:52:43;;;;;;;64.65;45.53;;;19.10;99.90;;;;;;5059859;28;20368;-66
2023/09/12 00:55:09;;;;;;;71.25;47.42;;;19.10;99.90;;;;;;5052225;28;20163;-66
2023/09/12 00:57:35;;;;;;;74.90;49.92;;;19.20;99.90;;;;;;5044267;28;20040;-66
2023/09/12 01:00:12;;;;;;;82.50;51.70;;;19.20;99.90;;;;;;5062263;28;20436;-66
2023/09/12 01:02:47;;;;;;;70.45;47.90;;;19.20;99.90;;;;;;5055241;28;20041;-66
2023/09/12 01:05:14;;;;;;;66.40;47.95;;;19.20;99.90;;;;;;5034918;28;20750;-66
2023/09/12 01:07:42;;;;;;;70.65;49.38;;;19.20;99.90;;;;;;5052786;28;20394;-66
2023/09/12 01:10:08;;;;;;;99.53;56.15;;;19.20;99.90;;;;;;5057480;28;20044;-66
2023/09/12 01:12:34;;;;;;;91.10;55.55;;;19.20;99.90;;;;;;5060617;28;20048;-66
2023/09/12 01:15:00;;;;;;;80.43;50.65;;;19.20;99.90;;;;;;5058126;28;20049;-66
2023/09/12 01:17:27;;;;;;;72.28;48.95;;;19.20;99.90;;;;;;5062400;28;20043;-66
2023/09/12 01:19:53;;;;;;;100.40;55.15;;;19.20;99.90;;;;;;5058159;28;20072;-66
2023/09/12 01:22:40;;;;;;;101.72;55.45;;;19.20;99.90;;;;;;5055529;28;20046;-66
2023/09/12 01:25:12;;;;;;;106.57;55.65;;;19.20;99.90;;;;;;5089068;28;20036;-66
2023/09/12 01:27:44;;;;;;;119.55;58.83;;;19.20;99.90;;;;;;5064382;28;20032;-66
2023/09/12 01:30:10;;;;;;;74.72;51.30;;;19.20;99.90;;;;;;5056147;28;20037;-66
2023/09/12 01:32:38;;;;;;;103.28;57.15;;;19.20;99.90;;;;;;5061476;28;20052;-66
2023/09/12 01:35:04;;;;;;;86.28;52.63;;;19.10;99.90;;;;;;5053287;28;20044;-66
2023/09/12 01:37:34;;;;;;;79.47;50.25;;;19.10;99.90;;;;;;5056962;28;20050;-66
2023/09/12 01:40:00;;;;;;;87.28;49.95;;;19.10;99.90;;;;;;5058231;28;20116;-66
2023/09/12 01:42:30;;;;;;;139.55;59.85;;;19.10;99.90;;;;;;5061703;28;20068;-65
2023/09/12 01:44:57;;;;;;;74.13;48.97;;;19.00;99.90;;;;;;5061751;28;20171;-66
2023/09/12 01:47:25;;;;;;;108.63;55.75;;;19.00;99.90;;;;;;5058075;28;20033;-66
2023/09/12 01:49:55;;;;;;;104.07;54.65;;;18.90;99.90;;;;;;5058317;28;20498;-66
2023/09/12 01:52:21;;;;;;;107.30;55.78;;;18.90;99.90;;;;;;5053026;28;20046;-66
2023/09/12 01:54:49;;;;;;;137.18;60.15;;;18.90;99.90;;;;;;5059432;28;20045;-66
2023/09/12 01:57:15;;;;;;;70.72;45.33;;;18.90;99.90;;;;;;5059575;28;20033;-65
2023/09/12 01:59:42;;;;;;;233.95;52.88;;;18.80;99.90;;;;;;5056378;28;20040;-66
2023/09/12 02:02:07;;;;;;;61.38;41.90;;;18.80;99.90;;;;;;5040933;28;20080;-66
2023/09/12 02:04:33;;;;;;;62.65;42.88;;;18.70;99.90;;;;;;5086770;28;20073;-66
2023/09/12 02:06:59;;;;;;;84.43;48.28;;;18.70;99.90;;;;;;5059101;28;20091;-66
2023/09/12 02:09:25;;;;;;;83.35;50.65;;;18.70;99.90;;;;;;5060135;28;20136;-66
2023/09/12 02:11:52;;;;;;;66.03;47.10;;;18.60;99.90;;;;;;5057522;28;20511;-66
2023/09/12 02:14:18;;;;;;;80.43;50.33;;;18.60;99.90;;;;;;5058855;28;20474;-66
2023/09/12 02:16:44;;;;;;;133.68;58.85;;;18.70;99.90;;;;;;5056492;28;20040;-66
2023/09/12 02:19:10;;;;;;;113.05;55.25;;;18.60;99.90;;;;;;5060901;28;20062;-66
2023/09/12 02:21:35;;;;;;;69.85;44.90;;;18.60;99.90;;;;;;5053529;28;20029;-66
2023/09/12 02:24:01;;;;;;;60.40;43.28;;;18.60;99.90;;;;;;5055881;28;20551;-66
2023/09/12 02:26:27;;;;;;;181.52;65.57;;;18.70;99.90;;;;;;5062946;28;20547;-66
2023/09/12 02:28:53;;;;;;;86.95;51.45;;;18.60;99.90;;;;;;5045957;28;20173;-66
2023/09/12 02:31:18;;;;;;;109.63;55.17;;;18.60;99.90;;;;;;5052693;28;20098;-66
2023/09/12 02:33:45;;;;;;;106.43;54.70;;;18.60;99.90;;;;;;5054443;28;20048;-66
2023/09/12 02:36:11;;;;;;;96.22;53.30;;;18.60;99.90;;;;;;5056958;28;20035;-66
2023/09/12 02:38:36;;;;;;;112.82;52.38;;;18.60;99.90;;;;;;5062640;28;20156;-66
2023/09/12 02:41:02;;;;;;;79.18;48.97;;;18.50;99.90;;;;;;5054844;28;20124;-66
2023/09/12 02:43:29;;;;;;;80.95;48.80;;;18.60;99.90;;;;;;5037317;28;20049;-66
2023/09/12 02:45:55;;;;;;;122.95;56.63;;;18.50;99.90;;;;;;5062147;28;20086;-66
2023/09/12 02:48:20;;;;;;;97.45;51.80;;;18.50;99.90;;;;;;5044326;28;20040;-66
2023/09/12 02:50:46;;;;;;;103.97;51.38;;;18.50;99.90;;;;;;5059022;28;20126;-66
2023/09/12 02:53:12;;;;;;;56.15;40.50;;;18.40;99.90;;;;;;5052421;28;20263;-66
2023/09/12 02:55:42;;;;;;;77.97;47.15;;;18.40;99.90;;;;;;5041329;28;20070;-66
2023/09/12 02:58:08;;;;;;;75.30;47.10;;;18.50;99.90;;;;;;5062670;28;20086;-66
2023/09/12 03:00:40;;;;;;;103.85;52.53;;;18.40;99.90;;;;;;5056564;28;20040;-66
2023/09/12 03:03:07;;;;;;;212.52;66.55;;;18.40;99.90;;;;;;5060561;28;20131;-66
2023/09/12 03:05:32;;;;;;;128.90;56.75;;;18.40;99.90;;;;;;5056723;28;20520;-66
2023/09/12 03:07:58;;;;;;;123.55;56.05;;;18.40;99.90;;;;;;5062140;28;20040;-66
2023/09/12 03:10:24;;;;;;;253.70;69.10;;;18.40;99.90;;;;;;5059585;28;20107;-66
2023/09/12 03:12:49;;;;;;;174.95;63.97;;;18.30;99.90;;;;;;5056083;28;20032;-66
2023/09/12 03:15:15;;;;;;;371.23;75.30;;;18.30;99.90;;;;;;5059468;28;20067;-66
2023/09/12 03:17:41;;;;;;;260.50;68.18;;;18.30;99.90;;;;;;5055805;28;20090;-66
2023/09/12 03:20:09;;;;;;;318.83;69.28;;;18.30;99.90;;;;;;5063098;28;20504;-67
2023/09/12 03:22:37;;;;;;;523.35;106.75;;;18.20;99.90;;;;;;5057450;28;20482;-66
2023/09/12 03:25:04;;;;;;;378.90;63.75;;;18.20;99.90;;;;;;5057931;28;20119;-67
2023/09/12 03:27:30;;;;;;;568.35;94.95;;;18.20;99.90;;;;;;5057105;28;20393;-67
2023/09/12 03:29:56;;;;;;;228.05;60.28;;;18.20;99.90;;;;;;5062351;28;20123;-66
2023/09/12 03:32:21;;;;;;;325.48;74.80;;;18.10;99.90;;;;;;5061839;28;20060;-66
2023/09/12 03:34:47;;;;;;;354.10;74.43;;;18.10;99.90;;;;;;5039102;28;20054;-66
2023/09/12 03:37:13;;;;;;;232.60;56.90;;;18.10;99.90;;;;;;5059338;28;20070;-66
2023/09/12 03:39:38;;;;;;;325.67;72.70;;;18.10;99.90;;;;;;5023574;28;20040;-66
2023/09/12 03:42:04;;;;;;;652.25;112.05;;;18.10;99.90;;;;;;5059522;28;20536;-67
2023/09/12 03:44:30;;;;;;;313.00;64.78;;;18.10;99.90;;;;;;5056992;28;20028;-66
2023/09/12 03:46:56;;;;;;;460.60;84.13;;;18.10;99.90;;;;;;5057139;28;20385;-67
2023/09/12 03:49:22;;;;;;;540.75;107.97;;;18.00;99.90;;;;;;5057841;28;20097;-67
2023/09/12 03:51:48;;;;;;;488.63;96.10;;;18.00;99.90;;;;;;5053709;28;20080;-66
2023/09/12 03:54:14;;;;;;;370.00;78.13;;;18.00;99.90;;;;;;5062409;28;20071;-66
2023/09/12 03:56:39;;;;;;;465.67;97.90;;;18.00;99.90;;;;;;5054591;28;20032;-66
2023/09/12 03:59:05;;;;;;;320.23;78.50;;;18.00;99.90;;;;;;5035379;28;20417;-67
2023/09/12 04:01:31;;;;;;;314.52;76.20;;;18.00;99.90;;;;;;5056525;28;20097;-67
2023/09/12 04:03:57;;;;;;;178.30;61.30;;;18.00;99.90;;;;;;5053925;28;20133;-66
2023/09/12 04:06:22;;;;;;;330.42;76.28;;;17.90;99.90;;;;;;5047814;28;20044;-67
2023/09/12 04:08:48;;;;;;;458.20;105.78;;;17.90;99.90;;;;;;5056709;28;20044;-67
2023/09/12 04:11:14;;;;;;;435.42;92.90;;;17.90;99.90;;;;;;5051603;28;20038;-67
2023/09/12 04:13:39;;;;;;;236.73;73.68;;;17.90;99.90;;;;;;5044752;28;20124;-67
2023/09/12 04:16:05;;;;;;;272.63;70.53;;;17.90;99.90;;;;;;5060416;28;20040;-67
2023/09/12 04:18:31;;;;;;;370.42;76.20;;;17.90;99.90;;;;;;5061373;28;20470;-67
2023/09/12 04:20:57;;;;;;;254.50;66.53;;;18.00;99.90;;;;;;5058545;28;20033;-68
2023/09/12 04:23:25;;;;;;;365.15;81.30;;;18.00;99.90;;;;;;5056599;28;20044;-67
2023/09/12 04:25:50;;;;;;;336.48;66.57;;;18.00;99.90;;;;;;5036509;28;20040;-67
2023/09/12 04:28:16;;;;;;;376.73;79.75;;;17.90;99.90;;;;;;5060227;28;20028;-68
2023/09/12 04:30:42;;;;;;;342.17;72.95;;;17.90;99.90;;;;;;5057209;28;20534;-67
2023/09/12 04:33:08;;;;;;;229.65;69.10;;;17.90;99.90;;;;;;5059934;28;20520;-66
2023/09/12 04:35:35;;;;;;;319.40;76.93;;;17.90;99.90;;;;;;5056083;28;20045;-67
2023/09/12 04:38:01;;;;;;;208.45;58.33;;;17.90;99.90;;;;;;5056853;28;20029;-67
2023/09/12 04:40:27;;;;;;;232.85;64.65;;;17.80;99.90;;;;;;5062740;28;20044;-67
2023/09/12 04:42:53;;;;;;;114.63;53.15;;;17.90;99.90;;;;;;5058245;28;20041;-67
2023/09/12 04:45:19;;;;;;;326.85;77.93;;;17.80;99.90;;;;;;5058834;28;20040;-68
2023/09/12 04:47:45;;;;;;;88.95;48.13;;;17.80;99.90;;;;;;5063264;28;20393;-67
2023/09/12 04:50:11;;;;;;;231.55;69.07;;;17.80;99.90;;;;;;5059534;28;20234;-67
2023/09/12 04:52:37;;;;;;;190.35;63.15;;;17.80;99.90;;;;;;5059221;28;20493;-67
2023/09/12 04:55:04;;;;;;;133.38;52.55;;;17.80;99.90;;;;;;5052168;28;20509;-67
2023/09/12 04:57:30;;;;;;;273.20;69.38;;;17.80;99.90;;;;;;5055366;28;20060;-67
2023/09/12 04:59:58;;;;;;;82.70;48.08;;;17.90;99.90;;;;;;5057213;28;20129;-67
2023/09/12 05:02:25;;;;;;;171.65;60.65;;;17.90;99.90;;;;;;5053940;28;20041;-67
2023/09/12 05:04:51;;;;;;;176.00;62.67;;;17.90;99.90;;;;;;5043097;28;20033;-66
2023/09/12 05:07:16;;;;;;;95.93;52.63;;;17.90;99.90;;;;;;5061542;28;20826;-67
2023/09/12 05:09:42;;;;;;;107.03;50.88;;;17.90;99.90;;;;;;5057007;28;20528;-67
2023/09/12 05:12:08;;;;;;;126.70;53.10;;;17.90;99.90;;;;;;5062138;28;20103;-67
2023/09/12 05:14:34;;;;;;;236.85;67.10;;;17.90;99.90;;;;;;5045514;28;20430;-67
2023/09/12 05:17:01;;;;;;;71.95;45.30;;;17.90;99.90;;;;;;5058814;28;20045;-67
2023/09/12 05:19:27;;;;;;;133.38;59.58;;;17.90;99.90;;;;;;5042609;28;20055;-67
2023/09/12 05:21:53;;;;;;;169.93;60.97;;;17.90;99.90;;;;;;5055387;28;20504;-68
2023/09/12 05:24:19;;;;;;;145.35;60.95;;;17.90;99.90;;;;;;5043535;28;20052;-67
2023/09/12 05:26:47;;;;;;;79.38;49.08;;;17.90;99.90;;;;;;5043610;28;20043;-67
2023/09/12 05:29:13;;;;;;;171.98;61.97;;;17.90;99.90;;;;;;5065530;28;20059;-68
2023/09/12 05:31:39;;;;;;;119.25;55.35;;;17.90;99.90;;;;;;5047191;28;20478;-67
2023/09/12 05:34:04;;;;;;;107.40;50.42;;;17.90;99.90;;;;;;5064992;28;20506;-67
2023/09/12 05:36:30;;;;;;;101.45;50.83;;;17.90;99.90;;;;;;5053627;28;20375;-68
2023/09/12 05:38:56;;;;;;;99.90;50.70;;;17.90;99.90;;;;;;5061315;28;20060;-67
2023/09/12 05:41:21;;;;;;;88.50;46.50;;;18.00;99.90;;;;;;5061993;28;20043;-67
2023/09/12 05:43:47;;;;;;;112.03;50.17;;;18.00;99.90;;;;;;5061295;28;20044;-67
2023/09/12 05:46:13;;;;;;;89.55;48.17;;;18.00;99.90;;;;;;5059222;28;20116;-68
2023/09/12 05:48:39;;;;;;;89.82;48.85;;;17.90;99.90;;;;;;5055734;28;20033;-67
2023/09/12 05:51:04;;;;;;;133.85;54.90;;;18.00;99.90;;;;;;5035714;28;20481;-67
2023/09/12 05:53:30;;;;;;;153.90;60.70;;;17.90;99.90;;;;;;5059857;28;20052;-67
2023/09/12 05:55:56;;;;;;;109.47;54.95;;;17.90;99.90;;;;;;5060190;28;20470;-68
2023/09/12 05:58:22;;;;;;;130.55;59.10;;;17.90;99.90;;;;;;5056016;28;20039;-68
2023/09/12 06:00:47;;;;;;;103.18;53.67;;;17.90;99.90;;;;;;5039028;28;20094;-67
2023/09/12 06:03:15;;;;;;;120.00;54.17;;;17.90;99.90;;;;;;5048369;28;20041;-67
2023/09/12 06:05:40;;;;;;;107.75;54.67;;;17.90;99.90;;;;;;5049713;28;20033;-68
2023/09/12 06:08:06;;;;;;;125.28;56.22;;;17.90;99.90;;;;;;5050089;28;20028;-67
2023/09/12 06:10:33;;;;;;;103.50;54.08;;;17.90;99.90;;;;;;5043948;28;20068;-67
2023/09/12 06:12:59;;;;;;;212.55;69.35;;;18.00;99.90;;;;;;5052581;28;20044;-67
2023/09/12 06:15:25;;;;;;;214.68;68.00;;;18.00;99.90;;;;;;5051843;28;20036;-68
2023/09/12 06:17:50;;;;;;;180.85;63.92;;;18.00;99.90;;;;;;5043135;28;20486;-68
2023/09/12 06:20:16;;;;;;;125.32;59.95;;;18.00;99.90;;;;;;5062031;28;20478;-67
2023/09/12 06:22:43;;;;;;;113.32;55.45;;;18.00;99.90;;;;;;5051804;28;20033;-68
2023/09/12 06:25:08;;;;;;;247.50;75.35;;;18.00;99.90;;;;;;5053292;28;20116;-67
2023/09/12 06:27:34;;;;;;;152.93;60.60;;;18.00;99.90;;;;;;5054564;28;20595;-68
2023/09/12 06:30:00;;;;;;;116.13;56.90;;;18.00;99.90;;;;;;5061934;28;20036;-68
2023/09/12 06:32:26;;;;;;;129.85;60.00;;;18.00;99.90;;;;;;5040862;28;20395;-68
2023/09/12 06:34:52;;;;;;;127.85;58.08;;;18.10;99.90;;;;;;5052403;28;20056;-67
2023/09/12 06:37:18;;;;;;;110.28;56.22;;;18.10;99.90;;;;;;5049999;28;20120;-68
2023/09/12 06:39:44;;;;;;;105.55;53.38;;;18.10;99.90;;;;;;5055373;28;20478;-68
2023/09/12 06:42:10;;;;;;;116.03;54.03;;;18.10;99.90;;;;;;5059966;28;20185;-68
2023/09/12 06:44:35;;;;;;;82.47;46.92;;;18.10;99.90;;;;;;5058125;28;20044;-68
2023/09/12 06:47:03;;;;;;;96.35;49.80;;;18.10;99.90;;;;;;5050953;28;20047;-68
2023/09/12 06:49:32;;;;;;;93.05;50.65;;;18.00;99.90;;;;;;5049314;28;20040;-67
2023/09/12 06:51:57;;;;;;;110.43;54.03;;;18.00;99.90;;;;;;5069224;28;20045;-67
2023/09/12 06:54:23;;;;;;;120.82;55.47;;;18.00;99.90;;;;;;5046778;28;20052;-67
2023/09/12 06:56:49;;;;;;;93.93;49.92;;;18.00;99.90;;;;;;5041541;28;20071;-68
2023/09/12 06:59:14;;;;;;;102.07;50.97;;;18.00;99.90;;;;;;5030520;28;20173;-67
2023/09/12 07:01:40;;;;;;;94.85;49.38;;;18.10;99.90;;;;;;5045331;28;20063;-67
2023/09/12 07:04:06;;;;;;;86.63;47.75;;;18.10;99.90;;;;;;5044601;28;20048;-68
2023/09/12 07:06:32;;;;;;;71.55;45.97;;;18.10;99.90;;;;;;5010378;28;20417;-68
2023/09/12 07:08:58;;;;;;;89.03;48.42;;;18.20;99.90;;;;;;5048677;28;20061;-67
2023/09/12 07:11:24;;;;;;;97.47;49.97;;;18.30;99.90;;;;;;5045564;28;20585;-68
2023/09/12 07:13:50;;;;;;;85.97;49.17;;;18.40;99.90;;;;;;5062115;28;20080;-67
2023/09/12 07:16:15;;;;;;;72.25;44.88;;;18.40;99.90;;;;;;5046584;28;20051;-68
2023/09/12 07:18:41;;;;;;;86.13;47.40;;;18.40;99.90;;;;;;5024214;28;20055;-67
2023/09/12 07:21:10;;;;;;;71.43;43.95;;;18.50;99.90;;;;;;5048418;28;20039;-68
2023/09/12 07:23:35;;;;;;;73.22;46.38;;;18.50;99.90;;;;;;5047245;28;20462;-68
2023/09/12 07:26:02;;;;;;;105.60;50.92;;;18.50;99.90;;;;;;5047067;28;20061;-68
2023/09/12 07:28:30;;;;;;;96.32;48.17;;;18.40;99.90;;;;;;5049438;28;20126;-68
2023/09/12 07:30:56;;;;;;;77.18;46.20;;;18.50;99.90;;;;;;5046171;28;20025;-68
2023/09/12 07:33:22;;;;;;;78.43;46.33;;;18.50;99.90;;;;;;5046393;28;20467;-68
2023/09/12 07:35:51;;;;;;;77.00;47.15;;;18.40;99.90;;;;;;5045559;28;20059;-68
2023/09/12 07:38:17;;;;;;;96.32;48.70;;;18.40;99.90;;;;;;5044120;28;20036;-67
2023/09/12 07:40:43;;;;;;;91.32;49.90;;;18.40;99.90;;;;;;5043278;28;20032;-67
2023/09/12 07:43:10;;;;;;;92.63;50.35;;;18.40;99.90;;;;;;5042946;28;20490;-67
2023/09/12 07:45:38;;;;;;;85.80;48.33;;;18.40;99.90;;;;;;5047543;28;20045;-68
2023/09/12 07:48:09;;;;;;;74.03;45.53;;;18.40;99.90;;;;;;5048504;28;20045;-68
2023/09/12 07:50:38;;;;;;;68.07;43.65;;;18.50;99.90;;;;;;5027379;28;20599;-67
2023/09/12 07:53:05;;;;;;;75.10;46.05;;;18.40;99.90;;;;;;5048813;28;20048;-67
2023/09/12 07:55:35;;;;;;;76.75;44.20;;;18.30;99.90;;;;;;5049322;28;20032;-68
2023/09/12 07:58:02;;;;;;;69.82;43.38;;;18.30;99.90;;;;;;5048715;28;20520;-67
2023/09/12 08:00:28;;;;;;;68.03;42.47;;;18.30;99.90;;;;;;5044853;28;20021;-68
2023/09/12 08:02:54;;;;;;;78.85;45.42;;;18.30;99.90;;;;;;5048329;28;20413;-68
2023/09/12 08:05:19;;;;;;;68.78;42.60;;;18.30;99.90;;;;;;5050777;28;20120;-68
2023/09/12 08:07:45;;;;;;;83.75;45.85;;;18.30;99.90;;;;;;5053073;28;20485;-68
2023/09/12 08:10:11;;;;;;;70.75;43.03;;;18.40;99.90;;;;;;5044945;28;20444;-67
2023/09/12 08:12:38;;;;;;;82.20;46.47;;;18.40;99.90;;;;;;5048168;28;20049;-68
2023/09/12 08:15:04;;;;;;;80.88;45.97;;;18.40;99.90;;;;;;5045714;28;20032;-68
2023/09/12 08:17:30;;;;;;;85.03;47.92;;;18.40;99.90;;;;;;5047798;28;20099;-68
2023/09/12 08:19:56;;;;;;;76.18;45.47;;;18.50;99.90;;;;;;5045064;28;21221;-68
2023/09/12 08:22:22;;;;;;;72.63;43.88;;;18.60;99.90;;;;;;5046726;28;20481;-68
2023/09/12 08:24:48;;;;;;;71.93;43.47;;;18.60;99.90;;;;;;5049402;28;20509;-68
2023/09/12 08:27:13;;;;;;;70.40;43.80;;;18.70;99.90;;;;;;5035175;28;20040;-68
2023/09/12 08:29:39;;;;;;;70.15;43.67;;;18.70;99.90;;;;;;5030555;28;20120;-68
2023/09/12 08:32:05;;;;;;;66.25;41.38;;;18.80;99.90;;;;;;5051010;28;20032;-68
2023/09/12 08:34:31;;;;;;;66.65;42.20;;;18.90;99.90;;;;;;5047027;28;20084;-71
2023/09/12 08:36:57;;;;;;;76.47;45.92;;;18.90;99.90;;;;;;5048650;28;20123;-68
2023/09/12 08:39:25;;;;;;;66.57;42.05;;;19.00;99.90;;;;;;5058120;28;20740;-69
2023/09/12 08:41:52;;;;;;;59.33;40.90;;;19.00;99.90;;;;;;5052072;28;20432;-68
2023/09/12 08:44:18;;;;;;;67.93;42.40;;;19.10;99.90;;;;;;5045461;28;20124;-68
2023/09/12 08:46:45;;;;;;;65.95;42.10;;;19.10;99.90;;;;;;5047808;28;20046;-69
2023/09/12 08:49:11;;;;;;;60.92;38.95;;;19.10;99.90;;;;;;5051643;28;20963;-68
2023/09/12 08:51:41;;;;;;;56.97;37.83;;;19.20;99.90;;;;;;5047200;28;20116;-69
2023/09/12 08:54:07;;;;;;;61.00;39.67;;;19.20;99.90;;;;;;5046990;28;20068;-69
2023/09/12 08:56:38;;;;;;;63.88;40.35;;;19.20;99.90;;;;;;5048196;28;20532;-68
2023/09/12 08:59:05;;;;;;;61.53;40.40;;;19.30;99.90;;;;;;5066077;28;20043;-69
2023/09/12 09:01:32;;;;;;;57.13;37.97;;;19.30;99.90;;;;;;5047394;28;20048;-69
2023/09/12 09:03:58;;;;;;;56.75;37.80;;;19.40;99.90;;;;;;5049959;28;20047;-69
2023/09/12 09:06:25;;;;;;;56.85;37.85;;;19.40;99.90;;;;;;5045574;28;20049;-69
2023/09/12 09:08:51;;;;;;;57.13;37.85;;;19.50;99.90;;;;;;5048676;28;20438;-69
2023/09/12 09:11:17;;;;;;;44.47;33.13;;;19.50;99.90;;;;;;5050200;28;20032;-69
2023/09/12 09:13:43;;;;;;;52.58;36.58;;;19.60;99.90;;;;;;5055974;28;20765;-69
2023/09/12 09:16:10;;;;;;;52.30;35.78;;;19.60;99.90;;;;;;5052338;28;20116;-70
2023/09/12 09:18:55;;;;;;;55.65;35.55;;;19.70;99.90;;;;;;5052948;28;20534;-70
2023/09/12 09:21:25;;;;;;;52.28;36.17;;;19.70;99.90;;;;;;5050245;28;20035;-70
2023/09/12 09:23:55;;;;;;;51.67;35.25;;;19.80;99.90;;;;;;5046052;28;20044;-69
2023/09/12 09:26:22;;;;;;;45.15;32.70;;;19.80;99.90;;;;;;5049630;28;20833;-70
2023/09/12 09:29:03;;;;;;;50.50;34.42;;;19.80;99.90;;;;;;5046477;28;20551;-70
2023/09/12 09:31:29;;;;;;;51.83;35.10;;;19.80;99.90;;;;;;5049402;28;20482;-69
2023/09/12 09:33:55;;;;;;;45.58;32.50;;;19.90;99.90;;;;;;5046996;28;20057;-70
2023/09/12 09:36:21;;;;;;;43.95;32.30;;;19.90;99.90;;;;;;5049669;28;20053;-70
2023/09/12 09:38:47;;;;;;;43.13;30.40;;;19.90;99.90;;;;;;5070957;28;20048;-71
2023/09/12 09:41:13;;;;;;;42.88;29.83;;;19.90;99.90;;;;;;5045689;28;20044;-69
2023/09/12 09:43:38;;;;;;;47.85;32.78;;;19.90;99.90;;;;;;5048163;28;20055;-70
2023/09/12 09:46:04;;;;;;;41.85;30.25;;;19.90;99.90;;;;;;5046716;28;20041;-69
2023/09/12 09:48:31;;;;;;;44.47;31.90;;;20.00;99.90;;;;;;5028626;28;20046;-70
2023/09/12 09:51:02;;;;;;;44.75;31.38;;;20.00;99.90;;;;;;5027650;28;20040;-70
2023/09/12 09:53:34;;;;;;;45.58;30.85;;;20.10;99.90;;;;;;5049732;28;20206;-70
2023/09/12 09:56:14;;;;;;;38.40;29.50;;;20.20;99.90;;;;;;5048292;28;20045;-70
2023/09/12 09:58:53;;;;;;;43.53;30.98;;;20.30;99.90;;;;;;5048778;28;20032;-70
2023/09/12 10:01:30;;;;;;;38.30;30.20;;;20.40;99.90;;;;;;5046731;28;20501;-71
2023/09/12 10:03:59;;;;;;;35.58;27.50;;;20.70;99.90;;;;;;5049175;28;20081;-70
2023/09/12 10:06:27;;;;;;;38.13;29.33;;;20.90;99.90;;;;;;5045331;28;20032;-70
2023/09/12 10:08:54;;;;;;;39.78;29.38;;;21.00;99.90;;;;;;5048972;28;20045;-71
2023/09/12 10:11:27;;;;;;;39.97;29.20;;;21.20;99.90;;;;;;5049765;28;20423;-71
2023/09/12 10:13:57;;;;;;;37.97;29.00;;;21.40;99.90;;;;;;5055662;28;20806;-71
2023/09/12 10:16:25;;;;;;;32.38;25.65;;;21.50;99.90;;;;;;5050731;28;20723;-70
2023/09/12 10:19:25;;;;;;;36.45;27.25;;;21.60;99.90;;;;;;5048927;28;20139;-71
2023/09/12 10:22:12;;;;;;;37.97;27.02;;;21.80;99.90;;;;;;5033983;28;20084;-71
2023/09/12 10:24:40;;;;;;;33.97;26.73;;;22.00;99.90;;;;;;5050286;28;20049;-72
2023/09/12 10:27:06;;;;;;;31.58;24.45;;;22.10;99.90;;;;;;5049992;28;20116;-71
2023/09/12 10:29:33;;;;;;;31.15;24.80;;;22.20;99.90;;;;;;5050175;28;20118;-71
2023/09/12 10:31:59;;;;;;;28.83;23.25;;;22.40;99.90;;;;;;5052050;28;20091;-71
2023/09/12 10:34:27;;;;;;;28.80;22.15;;;22.60;99.90;;;;;;5046008;28;20053;-70
2023/09/12 10:36:55;;;;;;;29.65;22.80;;;22.70;99.90;;;;;;5048745;28;20128;-71
2023/09/12 10:39:22;;;;;;;30.48;24.67;;;22.80;99.90;;;;;;5045873;28;20107;-71
2023/09/12 10:41:51;;;;;;;29.10;24.02;;;22.70;99.90;;;;;;5047294;28;20143;-71
2023/09/12 10:44:17;;;;;;;31.08;24.38;;;22.70;99.90;;;;;;5048452;28;20708;-72
2023/09/12 10:46:45;;;;;;;27.05;22.52;;;22.60;99.90;;;;;;5052761;28;20501;-71
2023/09/12 10:49:13;;;;;;;29.15;22.33;;;22.50;99.90;;;;;;5049856;28;20124;-72
2023/09/12 10:51:44;;;;;;;25.67;22.02;;;22.40;99.90;;;;;;5043081;28;20045;-71
2023/09/12 10:54:14;;;;;;;26.83;22.20;;;22.40;99.90;;;;;;5050210;28;20048;-70
2023/09/12 10:56:40;;;;;;;28.45;21.27;;;22.30;99.90;;;;;;5053024;28;20049;-71
2023/09/12 10:59:06;;;;;;;27.00;22.63;;;22.30;99.90;;;;;;5055170;28;20045;-71
2023/09/12 11:01:50;;;;;;;27.15;23.08;;;22.20;99.90;;;;;;5055686;28;20033;-71
2023/09/12 11:04:18;;;;;;;26.80;22.38;;;22.20;99.90;;;;;;5054940;28;20072;-70
2023/09/12 11:06:45;;;;;;;26.10;22.25;;;22.40;99.90;;;;;;5055456;28;20036;-72
2023/09/12 11:09:13;;;;;;;27.08;22.60;;;22.60;99.90;;;;;;5056085;28;20032;-71
2023/09/12 11:11:41;;;;;;;28.25;22.63;;;22.70;99.90;;;;;;5056324;28;20839;-71
2023/09/12 11:14:08;;;;;;;25.02;21.85;;;22.90;99.90;;;;;;5054105;28;20048;-71
2023/09/12 11:16:35;;;;;;;24.33;20.45;;;23.00;99.90;;;;;;5056729;28;20045;-71
2023/09/12 11:19:24;;;;;;;28.65;22.13;;;23.20;99.90;;;;;;5054882;28;20040;-71
2023/09/12 11:21:52;;;;;;;25.85;20.20;;;23.30;99.90;;;;;;5055002;28;20124;-72
2023/09/12 11:24:19;;;;;;;21.85;18.75;;;23.30;99.90;;;;;;5055428;28;20048;-71
2023/09/12 11:27:00;;;;;;;19.05;16.63;;;23.50;99.90;;;;;;5037350;28;20392;-72
2023/09/12 11:29:39;;;;;;;19.83;16.67;;;23.70;99.90;;;;;;5053312;28;20171;-71
2023/09/12 11:32:06;;;;;;;20.05;17.20;;;23.80;99.90;;;;;;5053894;28;20432;-71
2023/09/12 11:34:42;;;;;;;23.40;19.00;;;23.90;99.90;;;;;;5036988;28;20323;-72
2023/09/12 11:37:09;;;;;;;22.00;18.67;;;23.80;99.90;;;;;;5055082;28;20045;-71
2023/09/12 11:39:39;;;;;;;22.38;19.65;;;23.70;99.90;;;;;;5055843;28;20044;-71
2023/09/12 11:42:10;;;;;;;25.70;20.30;;;23.70;99.90;;;;;;5055575;28;20037;-64
2023/09/12 11:44:36;;;;;;;25.43;19.47;;;23.70;99.90;;;;;;5054824;28;20041;-61
2023/09/12 11:47:09;;;;;;;23.63;19.05;;;23.80;99.90;;;;;;5057918;28;20040;-61
2023/09/12 11:49:39;;;;;;;23.02;18.85;;;23.80;99.90;;;;;;5038242;28;20546;-64
2023/09/12 11:52:13;;;;;;;21.08;17.48;;;23.70;99.90;;;;;;5046919;28;20041;-63
2023/09/12 11:54:43;;;;;;;20.52;17.02;;;23.80;99.90;;;;;;5033658;28;20052;-64
2023/09/12 11:57:10;;;;;;;24.70;19.05;;;23.90;99.90;;;;;;5044568;28;20044;-64
2023/09/12 11:59:40;;;;;;;20.40;17.92;;;23.90;99.90;;;;;;5027536;28;20079;-64
2023/09/12 12:02:08;;;;;;;19.17;16.63;;;23.90;99.90;;;;;;5048891;28;20199;-63
2023/09/12 12:04:34;;;;;;;25.27;18.77;;;23.80;99.90;;;;;;5045983;28;20107;-64
2023/09/12 12:07:01;;;;;;;21.40;18.83;;;23.80;99.90;;;;;;5056289;28;20036;-63
2023/09/12 12:09:27;;;;;;;20.38;18.00;;;23.70;99.90;;;;;;5051025;28;20083;-64
2023/09/12 12:11:53;;;;;;;22.85;18.35;;;23.80;99.90;;;;;;5050479;28;20041;-64
2023/09/12 12:14:19;;;;;;;21.05;17.60;;;23.80;99.90;;;;;;5053078;28;20394;-65
2023/09/12 12:16:46;;;;;;;19.90;17.35;;;23.80;99.90;;;;;;5054050;28;20049;-65
2023/09/12 12:19:14;;;;;;;20.52;18.15;;;24.00;99.90;;;;;;5054310;28;20056;-64
2023/09/12 12:21:43;;;;;;;19.05;16.85;;;24.10;99.90;;;;;;5053398;28;20040;-64
2023/09/12 12:24:14;;;;;;;21.15;17.40;;;24.30;99.90;;;;;;5044693;28;20036;-63